sensor_id;sensor_type;location;lat;lon;timestamp;P1;durP1;ratioP1;P2;durP2;ratioP2
20423;SDS011;10371;49.042;8.002;2023-07-22T00:00:53;2.00;;;1.90;;
20423;SDS011;10371;49.042;8.002;2023-07-22T00:01:54;2.20;;;2.00;;
20423;SDS011;10371;49.042;8.002;2023-07-22T00:02:54;2.05;;;1.85;;
20423;SDS011;10371;49.042;8.002;2023-07-22T00:03:54;1.77;;;1.67;;
20423;SDS011;10371;49.042;8.002;2023-07-22T00:04:55;1.88;;;1.60;;
20423;SDS011;10371;49.042;8.002;2023-07-22T00:06:02;1.73;;;1.63;;
20423;SDS011;10371;49.042;8.002;2023-07-22T00:07:06;1.90;;;1.80;;
20423;SDS011;10371;49.042;8.002;2023-07-22T00:08:07;2.00;;;1.90;;
20423;SDS011;10371;49.042;8.002;2023-07-22T00:09:07;1.75;;;1.65;;
20423;SDS011;10371;49.042;8.002;2023-07-22T00:10:07;1.88;;;1.77;;
20423;SDS011;10371;49.042;8.002;2023-07-22T00:11:08;2.10;;;1.83;;
20423;SDS011;10371;49.042;8.002;2023-07-22T00:12:08;1.73;;;1.60;;
20423;SDS011;10371;49.042;8.002;2023-07-22T00:13:09;1.70;;;1.60;;
20423;SDS011;10371;49.042;8.002;2023-07-22T00:14:09;1.75;;;1.65;;
20423;SDS011;10371;49.042;8.002;2023-07-22T00:15:10;1.70;;;1.60;;
20423;SDS011;10371;49.042;8.002;2023-07-22T00:16:12;2.05;;;1.75;;
20423;SDS011;10371;49.042;8.002;2023-07-22T00:17:13;1.73;;;1.63;;
20423;SDS011;10371;49.042;8.002;2023-07-22T00:18:13;1.58;;;1.48;;
20423;SDS011;10371;49.042;8.002;2023-07-22T00:19:14;2.17;;;1.98;;
20423;SDS011;10371;49.042;8.002;2023-07-22T00:20:14;2.10;;;1.90;;
20423;SDS011;10371;49.042;8.002;2023-07-22T00:21:14;1.80;;;1.70;;
20423;SDS011;10371;49.042;8.002;2023-07-22T00:22:15;1.80;;;1.70;;
20423;SDS011;10371;49.042;8.002;2023-07-22T00:23:15;1.60;;;1.50;;
20423;SDS011;10371;49.042;8.002;2023-07-22T00:24:16;1.60;;;1.50;;
20423;SDS011;10371;49.042;8.002;2023-07-22T00:25:17;1.63;;;1.52;;
20423;SDS011;10371;49.042;8.002;2023-07-22T00:26:17;2.00;;;1.80;;
20423;SDS011;10371;49.042;8.002;2023-07-22T00:27:17;1.75;;;1.65;;
20423;SDS011;10371;49.042;8.002;2023-07-22T00:28:18;2.20;;;1.75;;
20423;SDS011;10371;49.042;8.002;2023-07-22T00:29:18;2.10;;;1.90;;
20423;SDS011;10371;49.042;8.002;2023-07-22T00:30:18;1.60;;;1.50;;
20423;SDS011;10371;49.042;8.002;2023-07-22T00:31:19;2.10;;;1.90;;
20423;SDS011;10371;49.042;8.002;2023-07-22T00:32:19;1.80;;;1.70;;
20423;SDS011;10371;49.042;8.002;2023-07-22T00:33:19;1.70;;;1.60;;
20423;SDS011;10371;49.042;8.002;2023-07-22T00:34:19;2.47;;;1.65;;
20423;SDS011;10371;49.042;8.002;2023-07-22T00:35:20;1.70;;;1.60;;
20423;SDS011;10371;49.042;8.002;2023-07-22T00:36:20;1.80;;;1.70;;
20423;SDS011;10371;49.042;8.002;2023-07-22T00:37:20;1.83;;;1.70;;
20423;SDS011;10371;49.042;8.002;2023-07-22T00:38:21;1.67;;;1.58;;
20423;SDS011;10371;49.042;8.002;2023-07-22T00:39:21;1.75;;;1.65;;
20423;SDS011;10371;49.042;8.002;2023-07-22T00:40:22;1.67;;;1.58;;
20423;SDS011;10371;49.042;8.002;2023-07-22T00:41:22;1.95;;;1.75;;
20423;SDS011;10371;49.042;8.002;2023-07-22T00:42:23;1.80;;;1.70;;
20423;SDS011;10371;49.042;8.002;2023-07-22T00:43:23;1.88;;;1.77;;
20423;SDS011;10371;49.042;8.002;2023-07-22T00:44:25;1.60;;;1.50;;
20423;SDS011;10371;49.042;8.002;2023-07-22T00:45:26;1.70;;;1.60;;
20423;SDS011;10371;49.042;8.002;2023-07-22T00:46:26;1.60;;;1.50;;
20423;SDS011;10371;49.042;8.002;2023-07-22T00:47:26;1.85;;;1.75;;
20423;SDS011;10371;49.042;8.002;2023-07-22T00:48:27;1.80;;;1.70;;
20423;SDS011;10371;49.042;8.002;2023-07-22T00:49:27;1.70;;;1.60;;
20423;SDS011;10371;49.042;8.002;2023-07-22T00:50:29;2.22;;;1.92;;
20423;SDS011;10371;49.042;8.002;2023-07-22T00:51:30;1.80;;;1.70;;
20423;SDS011;10371;49.042;8.002;2023-07-22T00:52:30;1.88;;;1.67;;
20423;SDS011;10371;49.042;8.002;2023-07-22T00:53:30;1.83;;;1.73;;
20423;SDS011;10371;49.042;8.002;2023-07-22T00:54:31;2.00;;;1.70;;
20423;SDS011;10371;49.042;8.002;2023-07-22T00:55:32;1.73;;;1.63;;
20423;SDS011;10371;49.042;8.002;2023-07-22T00:56:35;1.95;;;1.75;;
20423;SDS011;10371;49.042;8.002;2023-07-22T00:57:36;1.98;;;1.88;;
20423;SDS011;10371;49.042;8.002;2023-07-22T00:58:37;1.70;;;1.60;;
20423;SDS011;10371;49.042;8.002;2023-07-22T00:59:38;1.60;;;1.50;;
20423;SDS011;10371;49.042;8.002;2023-07-22T01:00:40;1.70;;;1.60;;
20423;SDS011;10371;49.042;8.002;2023-07-22T01:01:40;1.70;;;1.60;;
20423;SDS011;10371;49.042;8.002;2023-07-22T01:02:40;2.40;;;1.50;;
20423;SDS011;10371;49.042;8.002;2023-07-22T01:03:41;2.33;;;1.83;;
20423;SDS011;10371;49.042;8.002;2023-07-22T01:04:41;1.60;;;1.50;;
20423;SDS011;10371;49.042;8.002;2023-07-22T01:05:41;1.63;;;1.52;;
20423;SDS011;10371;49.042;8.002;2023-07-22T01:06:42;2.03;;;1.80;;
20423;SDS011;10371;49.042;8.002;2023-07-22T01:07:44;1.50;;;1.40;;
20423;SDS011;10371;49.042;8.002;2023-07-22T01:08:44;1.83;;;1.73;;
20423;SDS011;10371;49.042;8.002;2023-07-22T01:09:46;1.92;;;1.77;;
20423;SDS011;10371;49.042;8.002;2023-07-22T01:10:46;1.80;;;1.70;;
20423;SDS011;10371;49.042;8.002;2023-07-22T01:11:48;1.55;;;1.45;;
20423;SDS011;10371;49.042;8.002;2023-07-22T01:12:48;1.73;;;1.63;;
20423;SDS011;10371;49.042;8.002;2023-07-22T01:13:48;2.58;;;1.80;;
20423;SDS011;10371;49.042;8.002;2023-07-22T01:14:49;1.75;;;1.65;;
20423;SDS011;10371;49.042;8.002;2023-07-22T01:15:49;1.88;;;1.77;;
20423;SDS011;10371;49.042;8.002;2023-07-22T01:16:50;1.88;;;1.73;;
20423;SDS011;10371;49.042;8.002;2023-07-22T01:17:50;1.95;;;1.80;;
20423;SDS011;10371;49.042;8.002;2023-07-22T01:18:52;1.95;;;1.77;;
20423;SDS011;10371;49.042;8.002;2023-07-22T01:19:53;1.80;;;1.70;;
20423;SDS011;10371;49.042;8.002;2023-07-22T01:20:53;2.10;;;1.70;;
20423;SDS011;10371;49.042;8.002;2023-07-22T01:21:54;2.35;;;1.90;;
20423;SDS011;10371;49.042;8.002;2023-07-22T01:22:55;1.63;;;1.52;;
20423;SDS011;10371;49.042;8.002;2023-07-22T01:23:56;1.60;;;1.50;;
20423;SDS011;10371;49.042;8.002;2023-07-22T01:24:57;2.08;;;1.80;;
20423;SDS011;10371;49.042;8.002;2023-07-22T01:25:58;2.40;;;1.88;;
20423;SDS011;10371;49.042;8.002;2023-07-22T01:26:59;2.17;;;1.98;;
20423;SDS011;10371;49.042;8.002;2023-07-22T01:28:00;1.70;;;1.60;;
20423;SDS011;10371;49.042;8.002;2023-07-22T01:29:04;2.72;;;2.03;;
20423;SDS011;10371;49.042;8.002;2023-07-22T01:30:06;2.05;;;1.75;;
20423;SDS011;10371;49.042;8.002;2023-07-22T01:31:09;1.98;;;1.80;;
20423;SDS011;10371;49.042;8.002;2023-07-22T01:32:10;1.70;;;1.60;;
20423;SDS011;10371;49.042;8.002;2023-07-22T01:33:10;2.33;;;1.70;;
20423;SDS011;10371;49.042;8.002;2023-07-22T01:34:11;1.70;;;1.60;;
20423;SDS011;10371;49.042;8.002;2023-07-22T01:35:12;1.60;;;1.50;;
20423;SDS011;10371;49.042;8.002;2023-07-22T01:36:13;1.70;;;1.60;;
20423;SDS011;10371;49.042;8.002;2023-07-22T01:37:13;2.00;;;1.80;;
20423;SDS011;10371;49.042;8.002;2023-07-22T01:38:13;1.70;;;1.48;;
20423;SDS011;10371;49.042;8.002;2023-07-22T01:39:14;2.13;;;1.92;;
20423;SDS011;10371;49.042;8.002;2023-07-22T01:40:15;1.90;;;1.80;;
20423;SDS011;10371;49.042;8.002;2023-07-22T01:41:15;1.73;;;1.63;;
20423;SDS011;10371;49.042;8.002;2023-07-22T01:42:15;1.60;;;1.50;;
20423;SDS011;10371;49.042;8.002;2023-07-22T01:43:16;1.90;;;1.80;;
20423;SDS011;10371;49.042;8.002;2023-07-22T01:44:16;1.60;;;1.50;;
20423;SDS011;10371;49.042;8.002;2023-07-22T01:45:16;2.03;;;1.83;;
20423;SDS011;10371;49.042;8.002;2023-07-22T01:46:16;1.70;;;1.60;;
20423;SDS011;10371;49.042;8.002;2023-07-22T01:47:17;2.05;;;1.67;;
20423;SDS011;10371;49.042;8.002;2023-07-22T01:48:17;1.85;;;1.50;;
20423;SDS011;10371;49.042;8.002;2023-07-22T01:49:17;1.80;;;1.70;;
20423;SDS011;10371;49.042;8.002;2023-07-22T01:50:17;1.80;;;1.70;;
20423;SDS011;10371;49.042;8.002;2023-07-22T01:51:18;2.10;;;1.92;;
20423;SDS011;10371;49.042;8.002;2023-07-22T01:52:18;1.83;;;1.70;;
20423;SDS011;10371;49.042;8.002;2023-07-22T01:53:19;2.22;;;1.70;;
20423;SDS011;10371;49.042;8.002;2023-07-22T01:54:20;2.05;;;1.90;;
20423;SDS011;10371;49.042;8.002;2023-07-22T01:55:20;1.63;;;1.50;;
20423;SDS011;10371;49.042;8.002;2023-07-22T01:56:20;2.10;;;1.95;;
20423;SDS011;10371;49.042;8.002;2023-07-22T01:57:21;2.03;;;1.88;;
20423;SDS011;10371;49.042;8.002;2023-07-22T01:58:21;2.63;;;2.05;;
20423;SDS011;10371;49.042;8.002;2023-07-22T01:59:21;2.85;;;1.70;;
20423;SDS011;10371;49.042;8.002;2023-07-22T02:00:22;2.22;;;1.83;;
20423;SDS011;10371;49.042;8.002;2023-07-22T02:01:22;2.70;;;1.85;;
20423;SDS011;10371;49.042;8.002;2023-07-22T02:02:22;2.42;;;1.98;;
20423;SDS011;10371;49.042;8.002;2023-07-22T02:03:23;2.85;;;1.85;;
20423;SDS011;10371;49.042;8.002;2023-07-22T02:04:23;3.75;;;2.20;;
20423;SDS011;10371;49.042;8.002;2023-07-22T02:05:24;2.58;;;1.90;;
20423;SDS011;10371;49.042;8.002;2023-07-22T02:06:25;3.42;;;1.80;;
20423;SDS011;10371;49.042;8.002;2023-07-22T02:07:26;2.05;;;1.70;;
20423;SDS011;10371;49.042;8.002;2023-07-22T02:08:28;2.03;;;1.92;;
20423;SDS011;10371;49.042;8.002;2023-07-22T02:09:29;1.92;;;1.83;;
20423;SDS011;10371;49.042;8.002;2023-07-22T02:10:29;2.10;;;1.90;;
20423;SDS011;10371;49.042;8.002;2023-07-22T02:11:29;2.28;;;1.88;;
20423;SDS011;10371;49.042;8.002;2023-07-22T02:12:30;2.60;;;2.05;;
20423;SDS011;10371;49.042;8.002;2023-07-22T02:13:30;2.00;;;1.90;;
20423;SDS011;10371;49.042;8.002;2023-07-22T02:14:31;2.13;;;1.92;;
20423;SDS011;10371;49.042;8.002;2023-07-22T02:15:32;1.98;;;1.88;;
20423;SDS011;10371;49.042;8.002;2023-07-22T02:16:35;2.30;;;2.10;;
20423;SDS011;10371;49.042;8.002;2023-07-22T02:17:39;2.15;;;1.90;;
20423;SDS011;10371;49.042;8.002;2023-07-22T02:18:39;2.72;;;2.53;;
20423;SDS011;10371;49.042;8.002;2023-07-22T02:19:39;4.80;;;2.50;;
20423;SDS011;10371;49.042;8.002;2023-07-22T02:20:42;2.85;;;2.60;;
20423;SDS011;10371;49.042;8.002;2023-07-22T02:21:42;2.20;;;2.00;;
20423;SDS011;10371;49.042;8.002;2023-07-22T02:22:43;3.15;;;2.50;;
20423;SDS011;10371;49.042;8.002;2023-07-22T02:23:43;2.63;;;2.42;;
20423;SDS011;10371;49.042;8.002;2023-07-22T02:24:43;2.50;;;2.30;;
20423;SDS011;10371;49.042;8.002;2023-07-22T02:25:43;2.80;;;2.60;;
20423;SDS011;10371;49.042;8.002;2023-07-22T02:26:44;2.60;;;2.40;;
20423;SDS011;10371;49.042;8.002;2023-07-22T02:27:45;2.25;;;2.05;;
20423;SDS011;10371;49.042;8.002;2023-07-22T02:28:47;3.05;;;2.30;;
20423;SDS011;10371;49.042;8.002;2023-07-22T02:29:48;2.92;;;2.50;;
20423;SDS011;10371;49.042;8.002;2023-07-22T02:30:48;2.75;;;2.50;;
20423;SDS011;10371;49.042;8.002;2023-07-22T02:31:49;2.95;;;2.40;;
20423;SDS011;10371;49.042;8.002;2023-07-22T02:32:50;2.47;;;2.20;;
20423;SDS011;10371;49.042;8.002;2023-07-22T02:33:51;2.40;;;2.20;;
20423;SDS011;10371;49.042;8.002;2023-07-22T02:34:51;3.30;;;2.10;;
20423;SDS011;10371;49.042;8.002;2023-07-22T02:35:52;2.30;;;2.10;;
20423;SDS011;10371;49.042;8.002;2023-07-22T02:36:52;2.17;;;1.90;;
20423;SDS011;10371;49.042;8.002;2023-07-22T02:37:52;2.53;;;1.80;;
20423;SDS011;10371;49.042;8.002;2023-07-22T02:38:52;2.97;;;2.30;;
20423;SDS011;10371;49.042;8.002;2023-07-22T02:39:54;2.30;;;2.10;;
20423;SDS011;10371;49.042;8.002;2023-07-22T02:40:55;2.55;;;2.20;;
20423;SDS011;10371;49.042;8.002;2023-07-22T02:42:02;2.10;;;1.90;;
20423;SDS011;10371;49.042;8.002;2023-07-22T02:43:02;2.15;;;1.90;;
20423;SDS011;10371;49.042;8.002;2023-07-22T02:44:03;2.30;;;2.00;;
20423;SDS011;10371;49.042;8.002;2023-07-22T02:45:03;2.92;;;2.15;;
20423;SDS011;10371;49.042;8.002;2023-07-22T02:46:05;2.72;;;2.20;;
20423;SDS011;10371;49.042;8.002;2023-07-22T02:47:07;2.60;;;2.00;;
20423;SDS011;10371;49.042;8.002;2023-07-22T02:48:08;2.38;;;2.13;;
20423;SDS011;10371;49.042;8.002;2023-07-22T02:49:09;2.13;;;2.00;;
20423;SDS011;10371;49.042;8.002;2023-07-22T02:50:10;2.22;;;2.03;;
20423;SDS011;10371;49.042;8.002;2023-07-22T02:51:10;2.00;;;1.90;;
20423;SDS011;10371;49.042;8.002;2023-07-22T02:52:11;2.08;;;1.98;;
20423;SDS011;10371;49.042;8.002;2023-07-22T02:53:11;2.08;;;1.98;;
20423;SDS011;10371;49.042;8.002;2023-07-22T02:54:11;2.17;;;2.05;;
20423;SDS011;10371;49.042;8.002;2023-07-22T02:55:15;2.00;;;1.90;;
20423;SDS011;10371;49.042;8.002;2023-07-22T02:56:20;3.35;;;2.10;;
20423;SDS011;10371;49.042;8.002;2023-07-22T02:57:20;3.55;;;2.30;;
20423;SDS011;10371;49.042;8.002;2023-07-22T02:58:21;2.30;;;2.10;;
20423;SDS011;10371;49.042;8.002;2023-07-22T02:59:21;2.70;;;2.05;;
20423;SDS011;10371;49.042;8.002;2023-07-22T03:00:21;2.58;;;2.38;;
20423;SDS011;10371;49.042;8.002;2023-07-22T03:01:24;2.33;;;2.13;;
20423;SDS011;10371;49.042;8.002;2023-07-22T03:02:25;3.20;;;2.30;;
20423;SDS011;10371;49.042;8.002;2023-07-22T03:03:26;2.45;;;2.15;;
20423;SDS011;10371;49.042;8.002;2023-07-22T03:04:27;2.15;;;2.03;;
20423;SDS011;10371;49.042;8.002;2023-07-22T03:05:27;3.28;;;2.42;;
20423;SDS011;10371;49.042;8.002;2023-07-22T03:06:29;1.95;;;1.85;;
20423;SDS011;10371;49.042;8.002;2023-07-22T03:07:30;3.00;;;2.00;;
20423;SDS011;10371;49.042;8.002;2023-07-22T03:08:30;1.77;;;1.67;;
20423;SDS011;10371;49.042;8.002;2023-07-22T03:09:31;2.35;;;2.15;;
20423;SDS011;10371;49.042;8.002;2023-07-22T03:10:31;1.98;;;1.88;;
20423;SDS011;10371;49.042;8.002;2023-07-22T03:11:31;3.38;;;1.98;;
20423;SDS011;10371;49.042;8.002;2023-07-22T03:12:32;2.10;;;2.00;;
20423;SDS011;10371;49.042;8.002;2023-07-22T03:13:32;2.20;;;2.00;;
20423;SDS011;10371;49.042;8.002;2023-07-22T03:14:34;1.88;;;1.75;;
20423;SDS011;10371;49.042;8.002;2023-07-22T03:15:37;1.88;;;1.70;;
20423;SDS011;10371;49.042;8.002;2023-07-22T03:16:37;2.17;;;2.08;;
20423;SDS011;10371;49.042;8.002;2023-07-22T03:17:38;2.35;;;2.05;;
20423;SDS011;10371;49.042;8.002;2023-07-22T03:18:39;2.10;;;1.90;;
20423;SDS011;10371;49.042;8.002;2023-07-22T03:19:39;2.13;;;1.92;;
20423;SDS011;10371;49.042;8.002;2023-07-22T03:20:40;2.38;;;1.75;;
20423;SDS011;10371;49.042;8.002;2023-07-22T03:21:41;2.17;;;1.95;;
20423;SDS011;10371;49.042;8.002;2023-07-22T03:22:41;2.42;;;2.22;;
20423;SDS011;10371;49.042;8.002;2023-07-22T03:23:42;2.22;;;2.13;;
20423;SDS011;10371;49.042;8.002;2023-07-22T03:24:42;2.00;;;1.80;;
20423;SDS011;10371;49.042;8.002;2023-07-22T03:25:44;1.90;;;1.80;;
20423;SDS011;10371;49.042;8.002;2023-07-22T03:26:44;3.13;;;2.00;;
20423;SDS011;10371;49.042;8.002;2023-07-22T03:27:44;2.38;;;2.17;;
20423;SDS011;10371;49.042;8.002;2023-07-22T03:28:45;2.22;;;2.10;;
20423;SDS011;10371;49.042;8.002;2023-07-22T03:29:45;2.25;;;2.00;;
20423;SDS011;10371;49.042;8.002;2023-07-22T03:30:45;1.80;;;1.70;;
20423;SDS011;10371;49.042;8.002;2023-07-22T03:31:46;1.70;;;1.60;;
20423;SDS011;10371;49.042;8.002;2023-07-22T03:32:46;2.17;;;1.98;;
20423;SDS011;10371;49.042;8.002;2023-07-22T03:33:47;2.15;;;1.95;;
20423;SDS011;10371;49.042;8.002;2023-07-22T03:34:48;2.30;;;2.10;;
20423;SDS011;10371;49.042;8.002;2023-07-22T03:35:48;2.05;;;1.95;;
20423;SDS011;10371;49.042;8.002;2023-07-22T03:36:48;2.15;;;2.00;;
20423;SDS011;10371;49.042;8.002;2023-07-22T03:37:49;2.03;;;1.90;;
20423;SDS011;10371;49.042;8.002;2023-07-22T03:38:49;2.00;;;1.80;;
20423;SDS011;10371;49.042;8.002;2023-07-22T03:39:49;1.92;;;1.83;;
20423;SDS011;10371;49.042;8.002;2023-07-22T03:40:50;1.95;;;1.85;;
20423;SDS011;10371;49.042;8.002;2023-07-22T03:41:52;1.92;;;1.83;;
20423;SDS011;10371;49.042;8.002;2023-07-22T03:42:53;2.13;;;1.88;;
20423;SDS011;10371;49.042;8.002;2023-07-22T03:43:54;1.73;;;1.63;;
20423;SDS011;10371;49.042;8.002;2023-07-22T03:44:54;2.30;;;2.10;;
20423;SDS011;10371;49.042;8.002;2023-07-22T03:45:55;2.10;;;1.90;;
20423;SDS011;10371;49.042;8.002;2023-07-22T03:46:55;2.47;;;2.08;;
20423;SDS011;10371;49.042;8.002;2023-07-22T03:47:59;2.03;;;1.90;;
20423;SDS011;10371;49.042;8.002;2023-07-22T03:49:00;2.08;;;1.98;;
20423;SDS011;10371;49.042;8.002;2023-07-22T03:50:00;2.25;;;2.05;;
20423;SDS011;10371;49.042;8.002;2023-07-22T03:51:00;2.00;;;1.90;;
20423;SDS011;10371;49.042;8.002;2023-07-22T03:52:00;2.00;;;1.90;;
20423;SDS011;10371;49.042;8.002;2023-07-22T03:53:01;2.10;;;1.90;;
20423;SDS011;10371;49.042;8.002;2023-07-22T03:54:01;2.35;;;2.17;;
20423;SDS011;10371;49.042;8.002;2023-07-22T03:55:02;2.30;;;2.10;;
20423;SDS011;10371;49.042;8.002;2023-07-22T03:56:02;2.38;;;2.17;;
20423;SDS011;10371;49.042;8.002;2023-07-22T03:57:03;2.00;;;1.90;;
20423;SDS011;10371;49.042;8.002;2023-07-22T03:58:03;2.05;;;1.92;;
20423;SDS011;10371;49.042;8.002;2023-07-22T03:59:03;1.90;;;1.80;;
20423;SDS011;10371;49.042;8.002;2023-07-22T04:00:05;1.90;;;1.80;;
20423;SDS011;10371;49.042;8.002;2023-07-22T04:01:10;3.05;;;2.10;;
20423;SDS011;10371;49.042;8.002;2023-07-22T04:02:11;1.90;;;1.80;;
20423;SDS011;10371;49.042;8.002;2023-07-22T04:03:11;2.33;;;2.13;;
20423;SDS011;10371;49.042;8.002;2023-07-22T04:04:12;2.15;;;1.95;;
20423;SDS011;10371;49.042;8.002;2023-07-22T04:05:12;3.28;;;2.97;;
20423;SDS011;10371;49.042;8.002;2023-07-22T04:06:12;2.22;;;2.05;;
20423;SDS011;10371;49.042;8.002;2023-07-22T04:07:13;1.80;;;1.65;;
20423;SDS011;10371;49.042;8.002;2023-07-22T04:08:13;2.03;;;1.92;;
20423;SDS011;10371;49.042;8.002;2023-07-22T04:09:13;1.90;;;1.80;;
20423;SDS011;10371;49.042;8.002;2023-07-22T04:10:13;1.95;;;1.85;;
20423;SDS011;10371;49.042;8.002;2023-07-22T04:11:14;2.20;;;2.00;;
20423;SDS011;10371;49.042;8.002;2023-07-22T04:12:14;2.25;;;1.95;;
20423;SDS011;10371;49.042;8.002;2023-07-22T04:13:14;3.08;;;2.20;;
20423;SDS011;10371;49.042;8.002;2023-07-22T04:14:14;2.30;;;2.10;;
20423;SDS011;10371;49.042;8.002;2023-07-22T04:15:15;2.42;;;2.22;;
20423;SDS011;10371;49.042;8.002;2023-07-22T04:16:17;2.30;;;2.10;;
20423;SDS011;10371;49.042;8.002;2023-07-22T04:17:17;2.05;;;1.88;;
20423;SDS011;10371;49.042;8.002;2023-07-22T04:18:18;2.42;;;2.22;;
20423;SDS011;10371;49.042;8.002;2023-07-22T04:19:19;2.45;;;2.25;;
20423;SDS011;10371;49.042;8.002;2023-07-22T04:20:19;2.70;;;2.50;;
20423;SDS011;10371;49.042;8.002;2023-07-22T04:21:19;2.50;;;2.30;;
20423;SDS011;10371;49.042;8.002;2023-07-22T04:22:20;3.85;;;2.30;;
20423;SDS011;10371;49.042;8.002;2023-07-22T04:23:21;2.55;;;2.25;;
20423;SDS011;10371;49.042;8.002;2023-07-22T04:24:21;2.05;;;1.95;;
20423;SDS011;10371;49.042;8.002;2023-07-22T04:25:22;2.30;;;2.10;;
20423;SDS011;10371;49.042;8.002;2023-07-22T04:26:22;2.63;;;2.33;;
20423;SDS011;10371;49.042;8.002;2023-07-22T04:27:22;2.80;;;2.30;;
20423;SDS011;10371;49.042;8.002;2023-07-22T04:28:22;2.60;;;2.40;;
20423;SDS011;10371;49.042;8.002;2023-07-22T04:29:23;2.50;;;2.30;;
20423;SDS011;10371;49.042;8.002;2023-07-22T04:30:24;2.17;;;1.98;;
20423;SDS011;10371;49.042;8.002;2023-07-22T04:31:24;2.35;;;2.13;;
20423;SDS011;10371;49.042;8.002;2023-07-22T04:32:24;4.00;;;2.40;;
20423;SDS011;10371;49.042;8.002;2023-07-22T04:33:25;2.33;;;2.13;;
20423;SDS011;10371;49.042;8.002;2023-07-22T04:34:29;3.97;;;2.28;;
20423;SDS011;10371;49.042;8.002;2023-07-22T04:35:35;2.60;;;2.40;;
20423;SDS011;10371;49.042;8.002;2023-07-22T04:36:41;2.10;;;2.00;;
20423;SDS011;10371;49.042;8.002;2023-07-22T04:37:41;3.15;;;2.40;;
20423;SDS011;10371;49.042;8.002;2023-07-22T04:38:41;2.45;;;2.22;;
20423;SDS011;10371;49.042;8.002;2023-07-22T04:39:41;3.03;;;2.30;;
20423;SDS011;10371;49.042;8.002;2023-07-22T04:40:43;2.78;;;2.58;;
20423;SDS011;10371;49.042;8.002;2023-07-22T04:41:43;2.88;;;2.40;;
20423;SDS011;10371;49.042;8.002;2023-07-22T04:42:44;3.15;;;2.63;;
20423;SDS011;10371;49.042;8.002;2023-07-22T04:43:44;3.08;;;2.80;;
20423;SDS011;10371;49.042;8.002;2023-07-22T04:44:44;2.60;;;2.40;;
20423;SDS011;10371;49.042;8.002;2023-07-22T04:45:45;3.10;;;2.88;;
20423;SDS011;10371;49.042;8.002;2023-07-22T04:46:48;3.00;;;2.70;;
20423;SDS011;10371;49.042;8.002;2023-07-22T04:47:48;2.65;;;2.45;;
20423;SDS011;10371;49.042;8.002;2023-07-22T04:48:49;2.63;;;2.42;;
20423;SDS011;10371;49.042;8.002;2023-07-22T04:49:49;2.25;;;2.15;;
20423;SDS011;10371;49.042;8.002;2023-07-22T04:50:50;2.65;;;2.40;;
20423;SDS011;10371;49.042;8.002;2023-07-22T04:51:50;2.45;;;2.20;;
20423;SDS011;10371;49.042;8.002;2023-07-22T04:52:51;2.88;;;2.53;;
20423;SDS011;10371;49.042;8.002;2023-07-22T04:53:51;2.60;;;2.40;;
20423;SDS011;10371;49.042;8.002;2023-07-22T04:54:51;2.35;;;2.15;;
20423;SDS011;10371;49.042;8.002;2023-07-22T04:55:53;2.17;;;2.08;;
20423;SDS011;10371;49.042;8.002;2023-07-22T04:56:55;2.85;;;2.08;;
20423;SDS011;10371;49.042;8.002;2023-07-22T04:57:55;2.05;;;1.95;;
20423;SDS011;10371;49.042;8.002;2023-07-22T04:58:55;2.28;;;2.08;;
20423;SDS011;10371;49.042;8.002;2023-07-22T04:59:55;2.13;;;2.03;;
20423;SDS011;10371;49.042;8.002;2023-07-22T05:00:56;2.55;;;2.35;;
20423;SDS011;10371;49.042;8.002;2023-07-22T05:01:57;2.55;;;2.30;;
20423;SDS011;10371;49.042;8.002;2023-07-22T05:02:57;2.20;;;2.00;;
20423;SDS011;10371;49.042;8.002;2023-07-22T05:03:58;2.60;;;2.40;;
20423;SDS011;10371;49.042;8.002;2023-07-22T05:04:58;2.78;;;2.40;;
20423;SDS011;10371;49.042;8.002;2023-07-22T05:05:58;2.13;;;1.92;;
20423;SDS011;10371;49.042;8.002;2023-07-22T05:06:58;2.20;;;2.00;;
20423;SDS011;10371;49.042;8.002;2023-07-22T05:07:59;2.42;;;2.17;;
20423;SDS011;10371;49.042;8.002;2023-07-22T05:08:59;3.50;;;2.10;;
20423;SDS011;10371;49.042;8.002;2023-07-22T05:10:00;2.28;;;2.08;;
20423;SDS011;10371;49.042;8.002;2023-07-22T05:11:00;2.40;;;2.00;;
20423;SDS011;10371;49.042;8.002;2023-07-22T05:12:00;2.40;;;2.20;;
20423;SDS011;10371;49.042;8.002;2023-07-22T05:13:01;2.60;;;2.40;;
20423;SDS011;10371;49.042;8.002;2023-07-22T05:14:01;2.38;;;2.20;;
20423;SDS011;10371;49.042;8.002;2023-07-22T05:15:01;3.10;;;2.50;;
20423;SDS011;10371;49.042;8.002;2023-07-22T05:16:01;3.75;;;2.58;;
20423;SDS011;10371;49.042;8.002;2023-07-22T05:17:02;3.53;;;2.25;;
20423;SDS011;10371;49.042;8.002;2023-07-22T05:18:02;3.28;;;2.63;;
20423;SDS011;10371;49.042;8.002;2023-07-22T05:19:03;2.55;;;2.38;;
20423;SDS011;10371;49.042;8.002;2023-07-22T05:20:04;2.55;;;2.35;;
20423;SDS011;10371;49.042;8.002;2023-07-22T05:21:12;3.10;;;2.80;;
20423;SDS011;10371;49.042;8.002;2023-07-22T05:22:12;3.08;;;2.78;;
20423;SDS011;10371;49.042;8.002;2023-07-22T05:23:13;2.60;;;2.33;;
20423;SDS011;10371;49.042;8.002;2023-07-22T05:24:13;2.70;;;2.50;;
20423;SDS011;10371;49.042;8.002;2023-07-22T05:25:13;2.33;;;2.10;;
20423;SDS011;10371;49.042;8.002;2023-07-22T05:26:14;2.53;;;2.20;;
20423;SDS011;10371;49.042;8.002;2023-07-22T05:27:14;2.42;;;2.22;;
20423;SDS011;10371;49.042;8.002;2023-07-22T05:28:15;2.78;;;2.58;;
20423;SDS011;10371;49.042;8.002;2023-07-22T05:29:15;2.50;;;2.30;;
20423;SDS011;10371;49.042;8.002;2023-07-22T05:30:15;2.70;;;2.50;;
20423;SDS011;10371;49.042;8.002;2023-07-22T05:31:15;2.60;;;2.40;;
20423;SDS011;10371;49.042;8.002;2023-07-22T05:32:16;3.03;;;2.70;;
20423;SDS011;10371;49.042;8.002;2023-07-22T05:33:16;2.83;;;2.63;;
20423;SDS011;10371;49.042;8.002;2023-07-22T05:34:16;2.55;;;2.35;;
20423;SDS011;10371;49.042;8.002;2023-07-22T05:35:17;3.13;;;2.45;;
20423;SDS011;10371;49.042;8.002;2023-07-22T05:36:17;3.20;;;2.90;;
20423;SDS011;10371;49.042;8.002;2023-07-22T05:37:18;2.67;;;2.47;;
20423;SDS011;10371;49.042;8.002;2023-07-22T05:38:18;2.78;;;2.58;;
20423;SDS011;10371;49.042;8.002;2023-07-22T05:39:18;2.70;;;2.50;;
20423;SDS011;10371;49.042;8.002;2023-07-22T05:40:18;3.33;;;2.63;;
20423;SDS011;10371;49.042;8.002;2023-07-22T05:41:19;2.58;;;2.03;;
20423;SDS011;10371;49.042;8.002;2023-07-22T05:42:19;2.50;;;2.30;;
20423;SDS011;10371;49.042;8.002;2023-07-22T05:43:20;3.60;;;2.70;;
20423;SDS011;10371;49.042;8.002;2023-07-22T05:44:21;2.40;;;2.20;;
20423;SDS011;10371;49.042;8.002;2023-07-22T05:45:22;2.40;;;2.20;;
20423;SDS011;10371;49.042;8.002;2023-07-22T05:46:22;2.53;;;2.33;;
20423;SDS011;10371;49.042;8.002;2023-07-22T05:47:22;3.00;;;2.78;;
20423;SDS011;10371;49.042;8.002;2023-07-22T05:48:23;2.60;;;2.40;;
20423;SDS011;10371;49.042;8.002;2023-07-22T05:49:23;2.45;;;2.25;;
20423;SDS011;10371;49.042;8.002;2023-07-22T05:50:23;2.40;;;2.17;;
20423;SDS011;10371;49.042;8.002;2023-07-22T05:51:24;2.53;;;2.33;;
20423;SDS011;10371;49.042;8.002;2023-07-22T05:52:24;2.20;;;2.08;;
20423;SDS011;10371;49.042;8.002;2023-07-22T05:53:25;2.63;;;2.42;;
20423;SDS011;10371;49.042;8.002;2023-07-22T05:54:25;2.80;;;2.15;;
20423;SDS011;10371;49.042;8.002;2023-07-22T05:55:25;2.30;;;2.10;;
20423;SDS011;10371;49.042;8.002;2023-07-22T05:56:26;2.58;;;2.38;;
20423;SDS011;10371;49.042;8.002;2023-07-22T05:57:27;3.00;;;2.30;;
20423;SDS011;10371;49.042;8.002;2023-07-22T05:58:27;2.40;;;2.20;;
20423;SDS011;10371;49.042;8.002;2023-07-22T05:59:27;3.00;;;2.80;;
20423;SDS011;10371;49.042;8.002;2023-07-22T06:00:27;2.70;;;2.50;;
20423;SDS011;10371;49.042;8.002;2023-07-22T06:01:28;2.42;;;2.03;;
20423;SDS011;10371;49.042;8.002;2023-07-22T06:02:28;2.30;;;2.10;;
20423;SDS011;10371;49.042;8.002;2023-07-22T06:03:28;2.45;;;2.25;;
20423;SDS011;10371;49.042;8.002;2023-07-22T06:04:29;2.65;;;2.35;;
20423;SDS011;10371;49.042;8.002;2023-07-22T06:05:29;2.30;;;2.20;;
20423;SDS011;10371;49.042;8.002;2023-07-22T06:06:29;2.50;;;2.30;;